Time;durP1;ratioP1;P1;durP2;ratioP2;P2;SDS_P1;SDS_P2;PMS_P1;PMS_P2;Temp;Humidity;BMP_temperature;BMP_pressure;BME280_temperature;BME280_humidity;BME280_pressure;Samples;Min_cycle;Max_cycle;Signal;HPM_P1;HPM_P2
2022/10/31 00:00:53;;;;;;;20.88;3.47;;;10.10;99.90;;;;;;4996184;28;20068;-57
2022/10/31 00:03:20;;;;;;;9.27;3.33;;;10.10;99.90;;;;;;4999818;28;20049;-56
2022/10/31 00:05:48;;;;;;;13.00;3.35;;;10.10;99.90;;;;;;4996192;28;20164;-55
2022/10/31 00:08:16;;;;;;;11.70;3.70;;;10.10;99.90;;;;;;4997632;28;20127;-56
2022/10/31 00:10:45;;;;;;;10.55;3.10;;;10.20;99.90;;;;;;4999762;28;20428;-55
2022/10/31 00:13:13;;;;;;;10.23;2.78;;;10.20;99.90;;;;;;5000314;28;20050;-54
2022/10/31 00:15:40;;;;;;;5.85;2.22;;;10.30;99.90;;;;;;4998967;28;20197;-54
2022/10/31 00:18:09;;;;;;;8.57;2.40;;;10.20;99.90;;;;;;4997308;28;20033;-55
2022/10/31 00:20:37;;;;;;;10.68;3.28;;;10.20;99.90;;;;;;4998181;28;20439;-55
2022/10/31 00:23:05;;;;;;;18.13;3.00;;;10.20;99.90;;;;;;4999052;28;20056;-55
2022/10/31 00:25:37;;;;;;;16.77;3.13;;;10.20;99.90;;;;;;4997807;28;20042;-55
2022/10/31 00:28:06;;;;;;;8.32;2.78;;;10.20;99.90;;;;;;4999368;28;20553;-56
2022/10/31 00:30:33;;;;;;;5.68;2.40;;;10.20;99.90;;;;;;4997353;28;20423;-54
2022/10/31 00:33:00;;;;;;;13.63;2.90;;;10.10;99.90;;;;;;5000628;28;20040;-55
2022/10/31 00:35:27;;;;;;;13.27;3.72;;;10.10;99.90;;;;;;4995669;28;20499;-55
2022/10/31 00:37:54;;;;;;;16.88;3.78;;;10.10;99.90;;;;;;5001344;28;20577;-55
2022/10/31 00:40:21;;;;;;;12.50;2.67;;;10.10;99.90;;;;;;5006039;28;20064;-52
2022/10/31 00:42:47;;;;;;;12.27;2.47;;;10.10;99.90;;;;;;4995196;28;20098;-55
2022/10/31 00:45:14;;;;;;;7.95;2.38;;;10.20;99.90;;;;;;5000622;28;20046;-56
2022/10/31 00:47:41;;;;;;;9.07;2.17;;;10.20;99.90;;;;;;5012666;28;20046;-54
2022/10/31 00:50:08;;;;;;;10.32;3.38;;;10.20;99.90;;;;;;4997848;28;20053;-54
2022/10/31 00:52:36;;;;;;;9.95;2.92;;;10.20;99.90;;;;;;5005885;28;20046;-55
2022/10/31 00:55:03;;;;;;;12.32;3.25;;;10.10;99.90;;;;;;4998259;28;20079;-54
2022/10/31 00:57:29;;;;;;;13.75;3.30;;;10.10;99.90;;;;;;4995327;28;20222;-54
2022/10/31 00:59:56;;;;;;;13.75;4.43;;;10.10;99.90;;;;;;5006214;28;20256;-55
2022/10/31 01:02:23;;;;;;;23.70;3.28;;;10.00;99.90;;;;;;4997709;28;20064;-57
2022/10/31 01:04:49;;;;;;;8.27;2.80;;;10.00;99.90;;;;;;4999208;28;20940;-55
2022/10/31 01:07:16;;;;;;;11.68;3.65;;;10.00;99.90;;;;;;4993405;28;20069;-55
2022/10/31 01:09:44;;;;;;;9.43;2.78;;;10.00;99.90;;;;;;4997462;28;20580;-57
2022/10/31 01:12:10;;;;;;;12.15;2.75;;;10.00;99.90;;;;;;4996473;28;20369;-53
2022/10/31 01:14:43;;;;;;;8.05;2.88;;;10.00;99.90;;;;;;5005295;28;20045;-57
2022/10/31 01:17:10;;;;;;;12.70;2.75;;;10.00;99.90;;;;;;4995630;28;20061;-54
2022/10/31 01:19:37;;;;;;;15.52;2.80;;;10.00;99.90;;;;;;4995191;28;20132;-54
2022/10/31 01:22:03;;;;;;;;;;;10.00;99.90;;;;;;5002504;28;20124;-54
2022/10/31 01:24:30;;;;;;;11.63;3.00;;;10.00;99.90;;;;;;4997525;28;19921;-55
2022/10/31 01:26:57;;;;;;;;;;;10.00;99.90;;;;;;4997264;28;20046;-54
2022/10/31 01:29:23;;;;;;;9.52;2.78;;;10.00;99.90;;;;;;4994542;28;19925;-55
2022/10/31 01:31:50;;;;;;;12.25;3.33;;;10.00;99.90;;;;;;4996437;28;20042;-53
2022/10/31 01:34:17;;;;;;;14.07;2.40;;;10.00;99.90;;;;;;5000228;28;20046;-55
2022/10/31 01:36:47;;;;;;;5.70;2.22;;;10.00;99.90;;;;;;4999928;28;20037;-54
2022/10/31 01:39:15;;;;;;;11.73;2.35;;;10.00;99.90;;;;;;4997534;28;20129;-56
2022/10/31 01:41:48;;;;;;;9.23;2.45;;;10.00;99.90;;;;;;5005113;28;20330;-53
2022/10/31 01:44:14;;;;;;;12.30;2.67;;;9.90;99.90;;;;;;4995172;28;20060;-56
2022/10/31 01:46:55;;;;;;;12.13;3.50;;;9.90;99.90;;;;;;4995118;28;20050;-54
2022/10/31 01:49:29;;;;;;;9.07;2.58;;;9.90;99.90;;;;;;4997148;28;20055;-54
2022/10/31 01:52:02;;;;;;;13.38;2.80;;;9.90;99.90;;;;;;4997188;28;20045;-53
2022/10/31 01:54:36;;;;;;;15.68;2.95;;;10.00;99.90;;;;;;4998805;28;20049;-55
2022/10/31 01:57:06;;;;;;;9.55;2.72;;;10.00;99.90;;;;;;4996274;28;20045;-55
2022/10/31 01:59:40;;;;;;;6.72;2.70;;;10.00;99.90;;;;;;4999865;28;20061;-56
2022/10/31 02:02:07;;;;;;;11.55;2.90;;;9.90;99.90;;;;;;4997392;28;20037;-55
2022/10/31 02:04:35;;;;;;;8.55;2.30;;;9.90;99.90;;;;;;5005399;28;20266;-55
2022/10/31 02:07:10;;;;;;;12.98;3.70;;;9.90;99.90;;;;;;4996958;28;20049;-54
2022/10/31 02:09:37;;;;;;;10.63;2.53;;;9.90;99.90;;;;;;4996366;28;20050;-53
2022/10/31 02:12:06;;;;;;;11.80;4.05;;;9.90;99.90;;;;;;5003736;28;20050;-54
2022/10/31 02:14:33;;;;;;;8.27;3.53;;;9.90;99.90;;;;;;5003847;28;20049;-54
2022/10/31 02:17:02;;;;;;;16.50;3.00;;;9.90;99.90;;;;;;4998315;28;20073;-56
2022/10/31 02:19:51;;;;;;;8.82;2.70;;;9.90;99.90;;;;;;5003853;28;20738;-55
2022/10/31 02:22:29;;;;;;;11.27;2.55;;;9.80;99.90;;;;;;4998323;28;20042;-53
2022/10/31 02:25:21;;;;;;;11.07;2.38;;;9.80;99.90;;;;;;4996278;28;20516;-51
2022/10/31 02:27:59;;;;;;;5.60;2.22;;;9.70;99.90;;;;;;4990066;28;20632;-54
2022/10/31 02:30:47;;;;;;;8.00;2.60;;;9.70;99.90;;;;;;5003819;28;20255;-54
2022/10/31 02:33:46;;;;;;;5.85;2.03;;;9.70;99.90;;;;;;4995750;28;20468;-56
2022/10/31 02:36:21;;;;;;;8.98;2.72;;;9.60;99.90;;;;;;5014911;28;20506;-55
2022/10/31 02:39:07;;;;;;;15.73;4.22;;;9.60;99.90;;;;;;4998388;28;20069;-56
2022/10/31 02:41:55;;;;;;;12.65;2.55;;;9.50;99.90;;;;;;5005931;28;20058;-54
2022/10/31 02:44:29;;;;;;;9.90;2.45;;;9.50;99.90;;;;;;4999096;28;20124;-54
2022/10/31 02:47:05;;;;;;;4.38;2.25;;;9.50;99.90;;;;;;5000224;28;20050;-54
2022/10/31 02:49:42;;;;;;;11.48;3.00;;;9.50;99.90;;;;;;4999357;28;20420;-55
2022/10/31 02:52:25;;;;;;;7.45;2.40;;;9.50;99.90;;;;;;4999205;28;20519;-54
2022/10/31 02:54:52;;;;;;;9.45;2.83;;;9.40;99.90;;;;;;5012857;28;20760;-54
2022/10/31 02:57:28;;;;;;;6.95;2.15;;;9.40;99.90;;;;;;5000220;28;20800;-54
2022/10/31 03:00:07;;;;;;;8.23;2.47;;;9.40;99.90;;;;;;5001236;28;20428;-55
2022/10/31 03:02:55;;;;;;;9.80;2.58;;;9.40;99.90;;;;;;4995834;28;20111;-57
2022/10/31 03:05:47;;;;;;;14.85;2.78;;;9.40;99.90;;;;;;5000279;28;20519;-55
2022/10/31 03:08:27;;;;;;;8.32;2.60;;;9.40;99.90;;;;;;4991068;28;20519;-54
2022/10/31 03:11:00;;;;;;;15.20;2.83;;;9.40;99.90;;;;;;5009147;28;20412;-55
2022/10/31 03:13:34;;;;;;;8.93;2.67;;;9.40;99.90;;;;;;5003357;28;20289;-54
2022/10/31 03:16:11;;;;;;;16.10;2.20;;;9.40;99.90;;;;;;5007685;28;20054;-54
2022/10/31 03:18:45;;;;;;;7.30;1.95;;;9.40;99.90;;;;;;4996747;28;20792;-56
2022/10/31 03:21:20;;;;;;;8.60;2.60;;;9.40;99.90;;;;;;4998366;28;20052;-56
2022/10/31 03:23:50;;;;;;;15.90;3.53;;;9.40;99.90;;;;;;4997566;28;20049;-54
2022/10/31 03:26:21;;;;;;;8.80;2.78;;;9.30;99.90;;;;;;4998949;28;20547;-54
2022/10/31 03:28:57;;;;;;;13.32;2.65;;;9.30;99.90;;;;;;5003625;28;20053;-55
2022/10/31 03:31:30;;;;;;;10.20;2.38;;;9.30;99.90;;;;;;4998610;28;20057;-53
2022/10/31 03:34:00;;;;;;;11.55;3.25;;;9.30;99.90;;;;;;5000058;28;20053;-56
2022/10/31 03:36:32;;;;;;;9.43;2.50;;;9.30;99.90;;;;;;4999569;28;20061;-56
2022/10/31 03:39:02;;;;;;;10.18;2.65;;;9.30;99.90;;;;;;4999629;28;20500;-56
2022/10/31 03:41:32;;;;;;;6.05;2.35;;;9.30;99.90;;;;;;5007749;28;20046;-55
2022/10/31 03:44:04;;;;;;;8.55;2.35;;;9.20;99.90;;;;;;4998144;28;20050;-54
2022/10/31 03:46:32;;;;;;;10.90;3.08;;;9.20;99.90;;;;;;4999706;28;20069;-56
2022/10/31 03:48:59;;;;;;;;;;;9.20;99.90;;;;;;5002133;28;20049;-53
2022/10/31 03:51:38;;;;;;;9.52;2.50;;;9.20;99.90;;;;;;5007079;28;19933;-56
2022/10/31 03:54:13;;;;;;;6.45;2.30;;;9.20;99.90;;;;;;5001203;28;20150;-55
2022/10/31 03:56:57;;;;;;;11.82;3.85;;;9.20;99.90;;;;;;5012554;28;20065;-54
2022/10/31 03:59:32;;;;;;;7.97;2.13;;;9.20;99.90;;;;;;4998897;28;20136;-55
2022/10/31 04:02:04;;;;;;;14.68;2.42;;;9.20;99.90;;;;;;4999944;28;20671;-56
2022/10/31 04:04:33;;;;;;;10.65;2.55;;;9.20;99.90;;;;;;4998856;28;20061;-56
2022/10/31 04:07:01;;;;;;;9.63;3.33;;;9.20;99.90;;;;;;5004080;28;20962;-55
2022/10/31 04:09:33;;;;;;;9.13;2.60;;;9.20;99.90;;;;;;5003615;28;20140;-54
2022/10/31 04:12:01;;;;;;;9.35;3.15;;;9.20;99.90;;;;;;4999062;28;20053;-56
2022/10/31 04:14:57;;;;;;;8.80;2.03;;;9.20;99.90;;;;;;5006072;28;20337;-57
2022/10/31 04:17:29;;;;;;;7.57;2.40;;;9.20;99.90;;;;;;5000487;28;20482;-54
2022/10/31 04:19:59;;;;;;;10.50;2.72;;;9.10;99.90;;;;;;4997561;28;20049;-54
2022/10/31 04:22:27;;;;;;;7.55;2.85;;;9.10;99.90;;;;;;4997406;28;20046;-55
2022/10/31 04:24:54;;;;;;;15.13;3.50;;;9.10;99.90;;;;;;4998493;28;20044;-56
2022/10/31 04:27:21;;;;;;;;;;;9.10;99.90;;;;;;4999231;28;20049;-55
2022/10/31 04:29:48;;;;;;;12.30;3.67;;;9.10;99.90;;;;;;5006718;28;19925;-55
2022/10/31 04:32:17;;;;;;;15.05;3.60;;;9.10;99.90;;;;;;4997032;28;20042;-56
2022/10/31 04:34:44;;;;;;;9.73;2.17;;;9.00;99.90;;;;;;5006138;28;20429;-54
2022/10/31 04:37:11;;;;;;;13.43;2.42;;;9.10;99.90;;;;;;5013715;28;20277;-61
2022/10/31 04:39:39;;;;;;;5.57;2.50;;;9.00;99.90;;;;;;4995153;28;20035;-57
2022/10/31 04:42:44;;;;;;;20.35;3.20;;;9.10;99.90;;;;;;4996096;28;20845;-59
2022/10/31 04:45:11;;;;;;;;;;;9.10;99.90;;;;;;4998037;28;20359;-60
2022/10/31 04:47:44;;;;;;;8.57;2.47;;;9.10;99.90;;;;;;5011791;28;20024;-61
2022/10/31 04:50:10;;;;;;;14.05;3.60;;;9.10;99.90;;;;;;5003078;28;20160;-59
2022/10/31 04:52:41;;;;;;;;;;;9.10;99.90;;;;;;5011334;28;20161;-65
2022/10/31 04:55:11;;;;;;;18.20;3.45;;;9.10;99.90;;;;;;4994176;28;19930;-66
2022/10/31 04:58:13;;;;;;;6.30;2.47;;;9.10;99.90;;;;;;4990633;28;20673;-65
2022/10/31 05:00:40;;;;;;;20.00;3.17;;;9.10;99.90;;;;;;4998657;28;20080;-67
2022/10/31 05:03:07;;;;;;;4.70;2.47;;;9.20;99.90;;;;;;4997099;28;20151;-55
2022/10/31 05:05:33;;;;;;;13.25;3.95;;;9.20;99.90;;;;;;4999360;28;20045;-56
2022/10/31 05:08:02;;;;;;;10.00;2.72;;;9.20;99.90;;;;;;5000397;28;20044;-56
2022/10/31 05:10:31;;;;;;;7.43;2.45;;;9.20;99.90;;;;;;4994610;28;20456;-56
2022/10/31 05:13:02;;;;;;;11.65;3.13;;;9.20;99.90;;;;;;5001727;28;20041;-56
2022/10/31 05:15:49;;;;;;;6.38;2.17;;;9.20;99.90;;;;;;4998485;28;20052;-60
2022/10/31 05:18:34;;;;;;;4.72;1.90;;;9.20;99.90;;;;;;4998208;28;20057;-55
2022/10/31 05:21:13;;;;;;;8.05;3.03;;;9.20;99.90;;;;;;4997087;28;20159;-54
2022/10/31 05:23:52;;;;;;;32.53;3.30;;;9.10;99.90;;;;;;5014220;28;20049;-54
2022/10/31 05:26:21;;;;;;;18.02;2.53;;;9.10;99.90;;;;;;5006259;28;20053;-54
2022/10/31 05:28:47;;;;;;;13.95;2.72;;;9.10;99.90;;;;;;4997696;28;20251;-66
2022/10/31 05:31:15;;;;;;;5.18;2.67;;;9.00;99.90;;;;;;4993075;28;20046;-56
2022/10/31 05:33:42;;;;;;;5.28;2.08;;;9.10;99.90;;;;;;4993411;28;20041;-56
2022/10/31 05:36:27;;;;;;;9.35;2.78;;;9.10;99.90;;;;;;4999654;28;20065;-56
2022/10/31 05:38:57;;;;;;;11.15;2.60;;;9.00;99.90;;;;;;5000098;28;20041;-55
2022/10/31 05:41:30;;;;;;;14.25;3.28;;;9.00;99.90;;;;;;4998361;28;20558;-54
2022/10/31 05:44:07;;;;;;;;;;;9.00;99.90;;;;;;5000772;28;20054;-55
2022/10/31 05:46:47;;;;;;;16.20;2.88;;;9.00;99.90;;;;;;5000907;28;19932;-55
2022/10/31 05:49:33;;;;;;;13.32;3.22;;;9.00;99.90;;;;;;4995549;28;20400;-56
2022/10/31 05:52:18;;;;;;;9.35;2.90;;;9.00;99.90;;;;;;4995034;28;20088;-66
2022/10/31 05:54:53;;;;;;;6.18;2.60;;;8.90;99.90;;;;;;4998823;28;20053;-65
2022/10/31 05:57:19;;;;;;;;;;;8.90;99.90;;;;;;5004625;28;20076;-57
2022/10/31 05:59:46;;;;;;;14.10;3.50;;;8.90;99.90;;;;;;4996960;28;20118;-58
2022/10/31 06:02:21;;;;;;;14.38;3.42;;;8.80;99.90;;;;;;4996805;28;20153;-56
2022/10/31 06:05:20;;;;;;;9.60;2.10;;;8.80;99.90;;;;;;4992324;28;20426;-63
2022/10/31 06:07:47;;;;;;;;;;;8.80;99.90;;;;;;4978118;28;20352;-58
2022/10/31 06:10:14;;;;;;;9.48;3.42;;;8.80;99.90;;;;;;4985231;28;20340;-56
2022/10/31 06:12:40;;;;;;;;;;;8.80;99.90;;;;;;5014277;28;20056;-55
2022/10/31 06:15:19;;;;;;;9.85;4.13;;;8.80;99.90;;;;;;5001985;28;19926;-54
2022/10/31 06:18:17;;;;;;;9.77;3.00;;;8.70;99.90;;;;;;5000064;28;20052;-56
2022/10/31 06:20:47;;;;;;;10.50;2.92;;;8.70;99.90;;;;;;4995968;28;20057;-55
2022/10/31 06:23:15;;;;;;;17.17;3.13;;;8.70;99.90;;;;;;5007063;28;20263;-54
2022/10/31 06:25:47;;;;;;;12.80;3.25;;;8.70;99.90;;;;;;5001505;28;20324;-55
2022/10/31 06:28:14;;;;;;;12.90;2.50;;;8.80;99.90;;;;;;4999000;28;20057;-56
2022/10/31 06:30:49;;;;;;;7.63;3.65;;;8.80;99.90;;;;;;5003252;28;20049;-56
2022/10/31 06:33:16;;;;;;;18.42;3.95;;;8.80;99.90;;;;;;4996633;28;20058;-55
2022/10/31 06:35:53;;;;;;;13.75;2.97;;;8.80;99.90;;;;;;4999552;28;20411;-55
2022/10/31 06:38:20;;;;;;;20.13;4.55;;;8.90;99.90;;;;;;5001852;28;20141;-55
2022/10/31 06:40:47;;;;;;;8.43;2.50;;;9.10;99.90;;;;;;5001994;28;20536;-56
2022/10/31 06:43:22;;;;;;;15.02;3.20;;;9.30;99.90;;;;;;4999963;28;20085;-57
2022/10/31 06:45:55;;;;;;;20.05;3.90;;;9.50;99.90;;;;;;5002673;28;20960;-55
2022/10/31 06:48:39;;;;;;;13.95;3.65;;;9.70;99.90;;;;;;4999433;28;20038;-55
2022/10/31 06:51:29;;;;;;;8.65;3.20;;;10.10;99.90;;;;;;4998944;28;20549;-53
2022/10/31 06:53:55;;;;;;;13.13;4.05;;;10.50;99.90;;;;;;5001371;28;20088;-54
2022/10/31 06:56:25;;;;;;;7.82;2.95;;;10.80;99.90;;;;;;5010290;28;20097;-58
2022/10/31 06:58:55;;;;;;;4.35;2.45;;;11.20;99.90;;;;;;5007882;28;20099;-55
2022/10/31 07:01:41;;;;;;;5.40;2.38;;;11.50;99.90;;;;;;5001386;28;20041;-54
2022/10/31 07:04:10;;;;;;;13.98;2.92;;;12.00;99.90;;;;;;5013105;28;20107;-56
2022/10/31 07:06:37;;;;;;;12.73;3.03;;;12.30;99.90;;;;;;5007836;28;20041;-57
2022/10/31 07:09:05;;;;;;;8.45;2.78;;;12.70;99.90;;;;;;5002933;28;20581;-58
2022/10/31 07:11:32;;;;;;;12.95;3.40;;;13.00;99.90;;;;;;4995775;28;20047;-56
2022/10/31 07:13:59;;;;;;;10.13;2.97;;;13.20;99.90;;;;;;5008200;28;20100;-57
2022/10/31 07:16:26;;;;;;;;;;;13.50;99.90;;;;;;5003328;28;20594;-56
2022/10/31 07:18:53;;;;;;;6.68;2.90;;;13.80;99.90;;;;;;5003700;28;19925;-56
2022/10/31 07:21:20;;;;;;;6.70;2.53;;;14.20;99.90;;;;;;5006735;28;20054;-55
2022/10/31 07:23:47;;;;;;;;;;;14.50;99.90;;;;;;5000763;28;20677;-54
2022/10/31 07:26:34;;;;;;;11.55;2.90;;;14.80;99.90;;;;;;4997772;28;19929;-55
2022/10/31 07:29:01;;;;;;;12.93;3.13;;;15.10;99.90;;;;;;5003923;28;20054;-56
2022/10/31 07:31:28;;;;;;;7.72;2.97;;;15.30;99.90;;;;;;5006788;28;20511;-56
2022/10/31 07:34:00;;;;;;;12.35;3.17;;;15.40;99.90;;;;;;4998124;28;20108;-54
2022/10/31 07:36:27;;;;;;;12.15;3.45;;;15.50;99.90;;;;;;5002170;28;20049;-54
2022/10/31 07:38:58;;;;;;;9.15;2.72;;;15.60;99.90;;;;;;5000539;28;20048;-55
2022/10/31 07:41:25;;;;;;;18.63;2.85;;;15.70;99.90;;;;;;5007341;28;20069;-55
2022/10/31 07:43:53;;;;;;;11.02;2.97;;;15.70;99.90;;;;;;5004906;28;20095;-55
2022/10/31 07:46:50;;;;;;;8.10;3.33;;;15.70;99.90;;;;;;4997573;28;20199;-55
2022/10/31 07:49:36;;;;;;;12.80;3.10;;;15.80;99.90;;;;;;4997208;28;20471;-54
2022/10/31 07:52:08;;;;;;;13.68;3.05;;;15.70;99.90;;;;;;4998350;28;20259;-54
2022/10/31 07:54:54;;;;;;;14.27;3.17;;;15.60;99.90;;;;;;5002474;28;20088;-56
2022/10/31 07:57:23;;;;;;;11.98;3.42;;;15.70;99.90;;;;;;5011250;28;20049;-56
2022/10/31 07:59:51;;;;;;;9.73;3.05;;;15.70;99.90;;;;;;4999940;28;20276;-56
2022/10/31 08:02:17;;;;;;;;;;;15.80;99.90;;;;;;5000431;28;20037;-55
2022/10/31 08:04:47;;;;;;;9.85;2.97;;;15.90;99.90;;;;;;4997434;28;19932;-56
2022/10/31 08:07:40;;;;;;;12.55;2.75;;;16.10;99.90;;;;;;4996861;28;20554;-55
2022/10/31 08:10:13;;;;;;;11.52;3.75;;;16.30;99.90;;;;;;4999274;28;20224;-61
2022/10/31 08:12:39;;;;;;;12.13;3.40;;;16.60;99.90;;;;;;5013093;28;20056;-55
2022/10/31 08:15:08;;;;;;;9.88;2.97;;;16.80;99.90;;;;;;4998425;28;20141;-64
2022/10/31 08:17:36;;;;;;;10.02;3.53;;;17.10;99.90;;;;;;5006594;28;20078;-63
2022/10/31 08:20:06;;;;;;;11.25;3.83;;;17.40;99.90;;;;;;5000189;28;20697;-67
2022/10/31 08:22:40;;;;;;;;;;;17.60;99.20;;;;;;5001315;28;20471;-63
2022/10/31 08:25:10;;;;;;;25.67;5.05;;;17.80;98.70;;;;;;4998671;28;19936;-57
2022/10/31 08:27:38;;;;;;;14.70;2.97;;;17.90;96.30;;;;;;4999091;28;20112;-56
2022/10/31 08:30:05;;;;;;;13.55;3.75;;;18.10;94.60;;;;;;5007864;28;20041;-57
2022/10/31 08:32:33;;;;;;;12.32;3.40;;;18.20;94.60;;;;;;5001136;28;20052;-56
2022/10/31 08:35:35;;;;;;;9.32;2.67;;;18.40;93.30;;;;;;4987304;28;20509;-58
2022/10/31 08:38:28;;;;;;;12.65;3.65;;;18.60;90.00;;;;;;5003210;28;20175;-56
2022/10/31 08:40:56;;;;;;;14.13;4.30;;;18.70;90.10;;;;;;4999666;28;20340;-52
2022/10/31 08:43:22;;;;;;;;;;;18.90;86.80;;;;;;4999977;28;20056;-53
2022/10/31 08:45:49;;;;;;;12.43;3.15;;;19.00;83.00;;;;;;4999729;28;20051;-52
2022/10/31 08:48:23;;;;;;;14.40;3.55;;;19.10;80.80;;;;;;5001808;28;20065;-52
2022/10/31 08:50:57;;;;;;;11.48;3.72;;;19.10;84.10;;;;;;4997652;28;20549;-52
2022/10/31 08:53:25;;;;;;;7.47;2.85;;;19.20;83.60;;;;;;4996253;28;20061;-53
2022/10/31 08:56:08;;;;;;;10.77;3.70;;;19.30;84.80;;;;;;4999796;28;20116;-53
2022/10/31 08:58:35;;;;;;;6.07;2.80;;;19.40;85.20;;;;;;5000489;28;20045;-53
2022/10/31 09:01:07;;;;;;;7.82;3.20;;;19.50;86.60;;;;;;5000335;28;20140;-55
2022/10/31 09:03:35;;;;;;;7.80;3.55;;;19.60;83.40;;;;;;5003858;28;20041;-53
2022/10/31 09:06:02;;;;;;;;;;;19.60;82.80;;;;;;5000459;28;20140;-51
2022/10/31 09:08:30;;;;;;;;;;;19.70;79.20;;;;;;4999593;28;19932;-52
2022/10/31 09:10:57;;;;;;;;;;;19.80;81.30;;;;;;4999005;28;19925;-52
2022/10/31 09:13:44;;;;;;;18.35;3.35;;;19.80;80.30;;;;;;4996856;28;20395;-52
2022/10/31 09:16:29;;;;;;;9.65;3.60;;;19.90;78.30;;;;;;4997415;28;20095;-54
2022/10/31 09:18:56;;;;;;;17.23;4.05;;;19.90;76.20;;;;;;4999378;28;20339;-53
2022/10/31 09:21:23;;;;;;;19.20;3.70;;;20.00;77.00;;;;;;4997530;28;20662;-54
2022/10/31 09:23:50;;;;;;;13.25;2.90;;;20.10;80.00;;;;;;4997407;28;20392;-54
2022/10/31 09:26:16;;;;;;;9.23;3.00;;;20.30;80.10;;;;;;5002266;28;20509;-53
2022/10/31 09:28:53;;;;;;;;;;;20.50;79.70;;;;;;5006220;28;20054;-56
2022/10/31 09:31:22;;;;;;;10.63;3.45;;;20.70;75.80;;;;;;5013441;28;19975;-53
2022/10/31 09:33:49;;;;;;;17.77;4.82;;;20.80;74.50;;;;;;4995039;28;20098;-54
2022/10/31 09:36:34;;;;;;;18.02;4.60;;;20.80;74.80;;;;;;4999592;28;20407;-55
2022/10/31 09:39:02;;;;;;;20.02;4.75;;;21.00;77.50;;;;;;5007201;28;20127;-56
2022/10/31 09:41:50;;;;;;;14.63;4.80;;;21.10;79.70;;;;;;5013572;28;20041;-55
2022/10/31 09:44:44;;;;;;;12.88;4.68;;;21.30;79.70;;;;;;5000834;28;20065;-54
2022/10/31 09:48:11;;;;;;;12.02;4.35;;;21.60;79.60;;;;;;5003931;28;20061;-56
2022/10/31 09:51:08;;;;;;;13.95;5.88;;;21.80;79.30;;;;;;4998804;28;20495;-56
2022/10/31 09:53:59;;;;;;;14.60;5.60;;;21.80;77.90;;;;;;4997175;28;20068;-58
2022/10/31 09:56:27;;;;;;;17.80;6.28;;;21.90;77.00;;;;;;4997550;28;20057;-53
2022/10/31 09:59:00;;;;;;;17.15;4.72;;;22.20;76.90;;;;;;4994022;28;20511;-53
2022/10/31 10:01:27;;;;;;;12.15;4.75;;;22.50;75.20;;;;;;4997785;28;20536;-55
2022/10/31 10:04:03;;;;;;;15.32;4.47;;;22.70;73.20;;;;;;4997719;28;20042;-55
2022/10/31 10:06:56;;;;;;;14.05;5.28;;;22.80;72.50;;;;;;4998732;28;20042;-52
2022/10/31 10:09:52;;;;;;;22.73;5.47;;;22.90;68.20;;;;;;4998883;28;20112;-54
2022/10/31 10:12:53;;;;;;;11.18;4.40;;;22.90;69.80;;;;;;4999494;28;20633;-60
2022/10/31 10:15:49;;;;;;;15.43;5.43;;;23.00;70.60;;;;;;4996942;28;20237;-54
2022/10/31 10:18:54;;;;;;;22.20;5.60;;;23.30;70.60;;;;;;4994957;28;20038;-53
2022/10/31 10:21:47;;;;;;;13.80;4.55;;;23.50;67.40;;;;;;4999648;28;20062;-54
2022/10/31 10:24:58;;;;;;;17.45;5.40;;;23.70;67.00;;;;;;4992442;28;20919;-55
2022/10/31 10:27:49;;;;;;;17.95;4.85;;;23.80;63.80;;;;;;4996993;28;20121;-53
2022/10/31 10:30:20;;;;;;;14.75;4.38;;;24.00;61.10;;;;;;4997978;28;20507;-52
2022/10/31 10:32:54;;;;;;;13.65;4.85;;;24.20;61.00;;;;;;4996176;28;20038;-53
2022/10/31 10:35:32;;;;;;;16.17;4.40;;;24.40;56.90;;;;;;4994215;28;20419;-54
2022/10/31 10:38:16;;;;;;;17.50;5.05;;;24.50;55.70;;;;;;4998226;28;20038;-55
2022/10/31 10:40:43;;;;;;;13.13;5.25;;;24.60;56.30;;;;;;4998663;28;20133;-54
2022/10/31 10:43:23;;;;;;;21.40;5.15;;;24.60;55.40;;;;;;4998496;28;20069;-53
2022/10/31 10:48:43;;;;;;;10.38;4.07;;;24.70;56.00;;;;;;4998273;28;20536;-53
2022/10/31 10:51:32;;;;;;;14.70;4.45;;;24.90;55.80;;;;;;4998626;28;20135;-55
2022/10/31 10:54:36;;;;;;;12.95;4.90;;;25.00;54.00;;;;;;4995986;28;20297;-54
2022/10/31 10:57:17;;;;;;;14.02;4.75;;;24.90;54.40;;;;;;4997511;28;20136;-55
2022/10/31 10:59:46;;;;;;;11.63;4.35;;;24.90;53.80;;;;;;4999968;28;20080;-56
2022/10/31 11:02:24;;;;;;;20.35;4.03;;;24.70;52.60;;;;;;5001609;28;20077;-54
2022/10/31 11:04:54;;;;;;;19.05;5.05;;;24.40;51.70;;;;;;5001957;28;20045;-55
2022/10/31 11:07:21;;;;;;;13.18;5.05;;;24.20;53.10;;;;;;5002041;28;20540;-55
2022/10/31 11:09:48;;;;;;;15.93;4.60;;;23.90;55.30;;;;;;5000769;28;20046;-55
2022/10/31 11:12:26;;;;;;;17.85;5.80;;;23.70;57.70;;;;;;5000485;28;20046;-55
2022/10/31 11:14:59;;;;;;;18.80;6.65;;;23.30;61.50;;;;;;5000623;28;20169;-54
2022/10/31 11:17:33;;;;;;;22.30;5.72;;;22.90;65.20;;;;;;5002130;28;20466;-54
2022/10/31 11:20:20;;;;;;;13.40;5.55;;;22.50;67.40;;;;;;5000666;28;20065;-54
2022/10/31 11:22:48;;;;;;;12.60;4.88;;;22.10;71.80;;;;;;4992227;28;20370;-54
2022/10/31 11:25:26;;;;;;;11.70;5.22;;;21.70;74.90;;;;;;4999229;28;20042;-54
2022/10/31 11:28:03;;;;;;;12.95;5.38;;;21.40;79.10;;;;;;4999576;28;20069;-54
2022/10/31 11:30:36;;;;;;;11.75;5.65;;;21.10;88.70;;;;;;5008655;28;20135;-55
2022/10/31 11:33:03;;;;;;;15.60;5.38;;;20.80;92.60;;;;;;4997637;28;20534;-55
2022/10/31 11:35:30;;;;;;;16.65;4.88;;;20.50;95.80;;;;;;5000174;28;20132;-55
2022/10/31 11:37:59;;;;;;;12.45;4.78;;;20.30;95.20;;;;;;4998228;28;20050;-55
2022/10/31 11:40:27;;;;;;;16.83;5.57;;;20.10;98.10;;;;;;5001481;28;20046;-55
2022/10/31 11:42:59;;;;;;;23.75;7.43;;;19.90;99.90;;;;;;4999930;28;20046;-55
2022/10/31 11:45:30;;;;;;;13.07;4.70;;;19.60;99.90;;;;;;5002160;28;20038;-55
2022/10/31 11:48:00;;;;;;;19.05;6.07;;;19.50;99.90;;;;;;4999207;28;20136;-55
2022/10/31 11:50:40;;;;;;;17.77;7.03;;;19.30;99.90;;;;;;5001755;28;20050;-55
2022/10/31 11:53:17;;;;;;;15.57;7.18;;;19.20;99.90;;;;;;4997395;28;20099;-54
2022/10/31 11:55:45;;;;;;;15.70;5.43;;;19.10;99.90;;;;;;4999302;28;20045;-54
2022/10/31 11:58:26;;;;;;;9.75;4.90;;;19.00;99.90;;;;;;5000308;28;20445;-55
2022/10/31 12:00:55;;;;;;;7.45;4.53;;;18.80;99.90;;;;;;4998895;28;20216;-54
2022/10/31 12:03:22;;;;;;;12.95;6.40;;;18.80;99.90;;;;;;5008699;28;20074;-54
2022/10/31 12:05:51;;;;;;;;;;;18.70;99.90;;;;;;5001825;28;20050;-53
2022/10/31 12:08:18;;;;;;;15.73;5.70;;;18.70;99.90;;;;;;5002459;28;19925;-52
2022/10/31 12:11:17;;;;;;;18.80;6.70;;;18.60;99.90;;;;;;5000539;28;20420;-54
2022/10/31 12:14:36;;;;;;;12.45;6.38;;;18.50;99.90;;;;;;4999945;28;20412;-53
2022/10/31 12:17:13;;;;;;;11.88;6.10;;;18.50;99.90;;;;;;4993714;28;20061;-53
2022/10/31 12:19:59;;;;;;;10.35;4.78;;;18.30;99.90;;;;;;5001111;28;20037;-56
2022/10/31 12:22:46;;;;;;;11.90;6.30;;;18.30;99.90;;;;;;5000025;28;20140;-54
2022/10/31 12:25:21;;;;;;;;;;;18.20;99.90;;;;;;5001341;28;20066;-53
2022/10/31 12:28:11;;;;;;;12.30;6.10;;;18.10;99.90;;;;;;5000017;28;20305;-54
2022/10/31 12:30:58;;;;;;;13.25;6.13;;;18.00;99.90;;;;;;5006426;28;20585;-54
2022/10/31 12:33:51;;;;;;;15.80;7.15;;;17.90;99.90;;;;;;5000906;28;20296;-54
2022/10/31 12:36:47;;;;;;;20.20;7.82;;;17.90;99.90;;;;;;4998836;28;20104;-53
2022/10/31 12:39:28;;;;;;;20.13;6.82;;;17.80;99.90;;;;;;4997503;28;20129;-54
2022/10/31 12:42:13;;;;;;;18.63;7.55;;;17.70;99.90;;;;;;4996672;28;20042;-52
2022/10/31 12:45:11;;;;;;;15.95;8.00;;;17.70;99.90;;;;;;4999876;28;20045;-53
2022/10/31 12:48:06;;;;;;;20.87;8.20;;;17.90;99.90;;;;;;4998981;28;20045;-52
2022/10/31 12:50:38;;;;;;;21.70;7.80;;;18.10;99.90;;;;;;5001072;28;20451;-51
2022/10/31 12:53:29;;;;;;;16.27;8.60;;;18.50;99.90;;;;;;4994766;28;20584;-56
2022/10/31 12:56:29;;;;;;;15.52;7.82;;;19.10;99.90;;;;;;4999307;28;20042;-53
2022/10/31 12:59:51;;;;;;;11.13;7.65;;;19.60;99.90;;;;;;4998649;28;20258;-51
2022/10/31 13:02:40;;;;;;;26.05;7.97;;;20.10;99.90;;;;;;4990492;28;20050;-50
2022/10/31 13:05:29;;;;;;;14.05;6.40;;;20.30;99.90;;;;;;5000551;28;20257;-53
2022/10/31 13:08:16;;;;;;;10.88;6.25;;;20.40;99.90;;;;;;5000264;28;20318;-53
2022/10/31 13:11:02;;;;;;;14.73;8.02;;;20.50;99.90;;;;;;5005871;28;20041;-53
2022/10/31 13:14:06;;;;;;;10.98;6.60;;;20.50;99.90;;;;;;4999014;28;20076;-53
2022/10/31 13:16:37;;;;;;;18.10;7.22;;;20.60;99.90;;;;;;4998139;28;20069;-53
2022/10/31 13:19:27;;;;;;;15.57;6.15;;;20.70;99.90;;;;;;4995736;28;20038;-52
2022/10/31 13:22:17;;;;;;;13.68;5.43;;;20.90;99.90;;;;;;4997683;28;20139;-51
2022/10/31 13:24:49;;;;;;;11.13;6.07;;;21.10;96.80;;;;;;4999995;28;20095;-52
2022/10/31 13:27:26;;;;;;;14.18;5.15;;;21.50;93.90;;;;;;4998626;28;20062;-53
2022/10/31 13:30:17;;;;;;;10.60;5.28;;;21.90;91.10;;;;;;4994974;28;20058;-54
2022/10/31 13:32:50;;;;;;;12.15;5.53;;;22.10;87.80;;;;;;4999155;28;20500;-55
2022/10/31 13:35:20;;;;;;;15.80;6.68;;;22.40;84.50;;;;;;4997658;28;20523;-52